sensor_id;sensor_type;location;lat;lon;timestamp;P1;durP1;ratioP1;P2;durP2;ratioP2
50789;SDS011;37287;47.554;7.844;2023-10-09T00:02:11;9.05;;;3.38;;
50789;SDS011;37287;47.554;7.844;2023-10-09T00:04:41;6.28;;;3.22;;
50789;SDS011;37287;47.554;7.844;2023-10-09T00:07:09;8.88;;;3.33;;
50789;SDS011;37287;47.554;7.844;2023-10-09T00:09:37;8.52;;;2.97;;
50789;SDS011;37287;47.554;7.844;2023-10-09T00:12:15;8.68;;;2.95;;
50789;SDS011;37287;47.554;7.844;2023-10-09T00:14:49;9.60;;;3.20;;
50789;SDS011;37287;47.554;7.844;2023-10-09T00:17:17;8.05;;;2.80;;
50789;SDS011;37287;47.554;7.844;2023-10-09T00:19:48;10.32;;;2.88;;
50789;SDS011;37287;47.554;7.844;2023-10-09T00:22:19;9.60;;;3.45;;
50789;SDS011;37287;47.554;7.844;2023-10-09T00:24:46;8.23;;;3.08;;
50789;SDS011;37287;47.554;7.844;2023-10-09T00:27:16;6.28;;;2.92;;
50789;SDS011;37287;47.554;7.844;2023-10-09T00:29:46;14.00;;;3.38;;
50789;SDS011;37287;47.554;7.844;2023-10-09T00:32:12;9.35;;;3.70;;
50789;SDS011;37287;47.554;7.844;2023-10-09T00:34:53;14.60;;;3.47;;
50789;SDS011;37287;47.554;7.844;2023-10-09T00:37:24;11.63;;;3.60;;
50789;SDS011;37287;47.554;7.844;2023-10-09T00:39:52;6.88;;;3.55;;
50789;SDS011;37287;47.554;7.844;2023-10-09T00:42:30;10.30;;;3.67;;
50789;SDS011;37287;47.554;7.844;2023-10-09T00:45:03;8.43;;;2.92;;
50789;SDS011;37287;47.554;7.844;2023-10-09T00:47:31;10.65;;;3.47;;
50789;SDS011;37287;47.554;7.844;2023-10-09T00:52:37;14.45;;;3.40;;
50789;SDS011;37287;47.554;7.844;2023-10-09T00:55:06;10.60;;;3.63;;
50789;SDS011;37287;47.554;7.844;2023-10-09T00:57:41;10.25;;;3.28;;
50789;SDS011;37287;47.554;7.844;2023-10-09T01:00:17;13.27;;;3.60;;
50789;SDS011;37287;47.554;7.844;2023-10-09T01:03:12;11.27;;;3.97;;
50789;SDS011;37287;47.554;7.844;2023-10-09T01:05:43;4.57;;;2.85;;
50789;SDS011;37287;47.554;7.844;2023-10-09T01:08:24;7.07;;;2.92;;
50789;SDS011;37287;47.554;7.844;2023-10-09T01:11:06;6.80;;;3.40;;
50789;SDS011;37287;47.554;7.844;2023-10-09T01:13:41;9.60;;;3.20;;
50789;SDS011;37287;47.554;7.844;2023-10-09T01:16:19;7.25;;;3.00;;
50789;SDS011;37287;47.554;7.844;2023-10-09T01:18:51;7.55;;;3.17;;
50789;SDS011;37287;47.554;7.844;2023-10-09T01:21:24;8.50;;;3.33;;
50789;SDS011;37287;47.554;7.844;2023-10-09T01:23:53;7.35;;;2.88;;
50789;SDS011;37287;47.554;7.844;2023-10-09T01:26:36;8.43;;;3.03;;
50789;SDS011;37287;47.554;7.844;2023-10-09T01:29:14;5.85;;;2.97;;
50789;SDS011;37287;47.554;7.844;2023-10-09T01:31:50;7.68;;;3.08;;
50789;SDS011;37287;47.554;7.844;2023-10-09T01:34:22;7.32;;;2.67;;
50789;SDS011;37287;47.554;7.844;2023-10-09T01:37:07;15.15;;;2.90;;
50789;SDS011;37287;47.554;7.844;2023-10-09T01:39:50;6.30;;;2.85;;
50789;SDS011;37287;47.554;7.844;2023-10-09T01:42:19;8.10;;;3.13;;
50789;SDS011;37287;47.554;7.844;2023-10-09T01:44:57;8.65;;;3.08;;
50789;SDS011;37287;47.554;7.844;2023-10-09T01:47:47;7.90;;;2.95;;
50789;SDS011;37287;47.554;7.844;2023-10-09T01:50:18;5.65;;;3.13;;
50789;SDS011;37287;47.554;7.844;2023-10-09T01:52:59;8.05;;;2.95;;
50789;SDS011;37287;47.554;7.844;2023-10-09T01:55:31;10.32;;;3.00;;
50789;SDS011;37287;47.554;7.844;2023-10-09T01:58:06;7.97;;;3.40;;
50789;SDS011;37287;47.554;7.844;2023-10-09T02:00:48;10.65;;;3.70;;
50789;SDS011;37287;47.554;7.844;2023-10-09T02:03:22;6.70;;;3.10;;
50789;SDS011;37287;47.554;7.844;2023-10-09T02:05:55;8.52;;;3.15;;
50789;SDS011;37287;47.554;7.844;2023-10-09T02:08:44;12.55;;;3.53;;
50789;SDS011;37287;47.554;7.844;2023-10-09T02:11:16;7.88;;;3.05;;
50789;SDS011;37287;47.554;7.844;2023-10-09T02:14:04;10.85;;;3.30;;
50789;SDS011;37287;47.554;7.844;2023-10-09T02:16:47;6.97;;;3.30;;
50789;SDS011;37287;47.554;7.844;2023-10-09T02:19:34;7.32;;;2.97;;
50789;SDS011;37287;47.554;7.844;2023-10-09T02:22:01;7.05;;;3.38;;
50789;SDS011;37287;47.554;7.844;2023-10-09T02:24:41;5.07;;;2.70;;
50789;SDS011;37287;47.554;7.844;2023-10-09T02:27:18;7.20;;;3.22;;
50789;SDS011;37287;47.554;7.844;2023-10-09T02:30:07;9.25;;;3.72;;
50789;SDS011;37287;47.554;7.844;2023-10-09T02:32:46;8.18;;;3.50;;
50789;SDS011;37287;47.554;7.844;2023-10-09T02:35:17;8.50;;;3.53;;
50789;SDS011;37287;47.554;7.844;2023-10-09T02:37:54;7.40;;;3.30;;
50789;SDS011;37287;47.554;7.844;2023-10-09T02:40:26;14.98;;;3.10;;
50789;SDS011;37287;47.554;7.844;2023-10-09T02:42:59;5.90;;;2.88;;
50789;SDS011;37287;47.554;7.844;2023-10-09T02:45:26;8.35;;;2.80;;
50789;SDS011;37287;47.554;7.844;2023-10-09T02:48:01;6.32;;;2.75;;
50789;SDS011;37287;47.554;7.844;2023-10-09T02:50:37;8.75;;;2.67;;
50789;SDS011;37287;47.554;7.844;2023-10-09T02:53:07;9.35;;;3.00;;
50789;SDS011;37287;47.554;7.844;2023-10-09T02:55:36;7.13;;;3.20;;
50789;SDS011;37287;47.554;7.844;2023-10-09T02:58:05;6.40;;;2.90;;
50789;SDS011;37287;47.554;7.844;2023-10-09T03:00:38;11.57;;;2.85;;
50789;SDS011;37287;47.554;7.844;2023-10-09T03:03:05;8.10;;;2.78;;
50789;SDS011;37287;47.554;7.844;2023-10-09T03:05:35;11.55;;;3.17;;
50789;SDS011;37287;47.554;7.844;2023-10-09T03:08:06;6.80;;;2.78;;
50789;SDS011;37287;47.554;7.844;2023-10-09T03:10:35;6.72;;;3.05;;
50789;SDS011;37287;47.554;7.844;2023-10-09T03:13:01;7.78;;;3.10;;
50789;SDS011;37287;47.554;7.844;2023-10-09T03:15:31;7.28;;;2.80;;
50789;SDS011;37287;47.554;7.844;2023-10-09T03:18:02;8.50;;;2.75;;
50789;SDS011;37287;47.554;7.844;2023-10-09T03:20:31;6.80;;;2.60;;
50789;SDS011;37287;47.554;7.844;2023-10-09T03:23:02;9.18;;;3.33;;
50789;SDS011;37287;47.554;7.844;2023-10-09T03:25:29;11.38;;;3.03;;
50789;SDS011;37287;47.554;7.844;2023-10-09T03:27:55;7.32;;;3.10;;
50789;SDS011;37287;47.554;7.844;2023-10-09T03:30:24;10.13;;;3.63;;
50789;SDS011;37287;47.554;7.844;2023-10-09T03:32:51;6.90;;;3.42;;
50789;SDS011;37287;47.554;7.844;2023-10-09T03:35:21;10.68;;;3.85;;
50789;SDS011;37287;47.554;7.844;2023-10-09T03:37:56;7.70;;;3.45;;
50789;SDS011;37287;47.554;7.844;2023-10-09T03:40:27;15.15;;;3.70;;
50789;SDS011;37287;47.554;7.844;2023-10-09T03:42:54;9.07;;;3.90;;
50789;SDS011;37287;47.554;7.844;2023-10-09T03:45:28;9.63;;;3.35;;
50789;SDS011;37287;47.554;7.844;2023-10-09T03:47:57;5.63;;;3.28;;
50789;SDS011;37287;47.554;7.844;2023-10-09T03:50:29;8.98;;;3.58;;
50789;SDS011;37287;47.554;7.844;2023-10-09T03:53:09;12.93;;;4.10;;
50789;SDS011;37287;47.554;7.844;2023-10-09T03:55:40;9.90;;;3.30;;
50789;SDS011;37287;47.554;7.844;2023-10-09T03:58:08;7.82;;;3.13;;
50789;SDS011;37287;47.554;7.844;2023-10-09T04:00:39;7.57;;;3.35;;
50789;SDS011;37287;47.554;7.844;2023-10-09T04:03:13;7.10;;;3.17;;
50789;SDS011;37287;47.554;7.844;2023-10-09T04:05:42;7.85;;;3.08;;
50789;SDS011;37287;47.554;7.844;2023-10-09T04:08:10;7.22;;;3.13;;
50789;SDS011;37287;47.554;7.844;2023-10-09T04:10:55;8.45;;;3.22;;
50789;SDS011;37287;47.554;7.844;2023-10-09T04:13:27;6.57;;;3.05;;
50789;SDS011;37287;47.554;7.844;2023-10-09T04:16:13;5.00;;;3.00;;
50789;SDS011;37287;47.554;7.844;2023-10-09T04:18:54;7.10;;;2.80;;
50789;SDS011;37287;47.554;7.844;2023-10-09T04:21:34;5.03;;;2.80;;
50789;SDS011;37287;47.554;7.844;2023-10-09T04:24:04;7.13;;;2.80;;
50789;SDS011;37287;47.554;7.844;2023-10-09T04:26:49;6.07;;;2.60;;
50789;SDS011;37287;47.554;7.844;2023-10-09T04:29:23;5.82;;;2.97;;
50789;SDS011;37287;47.554;7.844;2023-10-09T04:31:55;6.53;;;3.13;;
50789;SDS011;37287;47.554;7.844;2023-10-09T04:34:23;7.47;;;2.92;;
50789;SDS011;37287;47.554;7.844;2023-10-09T04:36:55;5.88;;;2.58;;
50789;SDS011;37287;47.554;7.844;2023-10-09T04:39:50;8.68;;;2.50;;
50789;SDS011;37287;47.554;7.844;2023-10-09T04:42:37;6.88;;;2.80;;
50789;SDS011;37287;47.554;7.844;2023-10-09T04:45:05;8.02;;;3.00;;
50789;SDS011;37287;47.554;7.844;2023-10-09T04:50:25;4.60;;;2.58;;
50789;SDS011;37287;47.554;7.844;2023-10-09T04:52:57;3.85;;;2.60;;
50789;SDS011;37287;47.554;7.844;2023-10-09T04:55:46;6.35;;;2.70;;
50789;SDS011;37287;47.554;7.844;2023-10-09T04:58:24;5.07;;;2.60;;
50789;SDS011;37287;47.554;7.844;2023-10-09T05:00:55;4.00;;;2.40;;
50789;SDS011;37287;47.554;7.844;2023-10-09T05:03:24;8.63;;;2.75;;
50789;SDS011;37287;47.554;7.844;2023-10-09T05:05:53;7.25;;;3.20;;
50789;SDS011;37287;47.554;7.844;2023-10-09T05:08:26;10.48;;;2.78;;
50789;SDS011;37287;47.554;7.844;2023-10-09T05:11:02;7.13;;;2.75;;
50789;SDS011;37287;47.554;7.844;2023-10-09T05:13:32;9.88;;;3.00;;
50789;SDS011;37287;47.554;7.844;2023-10-09T05:16:14;5.03;;;2.72;;
50789;SDS011;37287;47.554;7.844;2023-10-09T05:18:46;5.65;;;2.72;;
50789;SDS011;37287;47.554;7.844;2023-10-09T05:21:24;5.80;;;2.88;;
50789;SDS011;37287;47.554;7.844;2023-10-09T05:24:01;9.48;;;2.65;;
50789;SDS011;37287;47.554;7.844;2023-10-09T05:26:49;4.53;;;2.97;;
50789;SDS011;37287;47.554;7.844;2023-10-09T05:29:20;6.23;;;2.87;;
50789;SDS011;37287;47.554;7.844;2023-10-09T05:32:01;4.50;;;2.38;;
50789;SDS011;37287;47.554;7.844;2023-10-09T05:34:46;7.70;;;2.60;;
50789;SDS011;37287;47.554;7.844;2023-10-09T05:37:29;7.28;;;2.58;;
50789;SDS011;37287;47.554;7.844;2023-10-09T05:40:02;7.68;;;2.97;;
50789;SDS011;37287;47.554;7.844;2023-10-09T05:42:43;7.03;;;2.78;;
50789;SDS011;37287;47.554;7.844;2023-10-09T05:45:13;5.72;;;2.72;;
50789;SDS011;37287;47.554;7.844;2023-10-09T05:47:44;5.63;;;2.78;;
50789;SDS011;37287;47.554;7.844;2023-10-09T05:50:25;7.38;;;2.97;;
50789;SDS011;37287;47.554;7.844;2023-10-09T05:52:54;6.10;;;3.13;;
50789;SDS011;37287;47.554;7.844;2023-10-09T05:55:31;8.38;;;2.83;;
50789;SDS011;37287;47.554;7.844;2023-10-09T05:58:17;7.63;;;3.13;;
50789;SDS011;37287;47.554;7.844;2023-10-09T06:01:04;8.73;;;2.90;;
50789;SDS011;37287;47.554;7.844;2023-10-09T06:03:50;12.17;;;3.97;;
50789;SDS011;37287;47.554;7.844;2023-10-09T06:06:22;6.72;;;2.88;;
50789;SDS011;37287;47.554;7.844;2023-10-09T06:09:09;8.27;;;3.58;;
50789;SDS011;37287;47.554;7.844;2023-10-09T06:11:45;11.10;;;3.63;;
50789;SDS011;37287;47.554;7.844;2023-10-09T06:14:15;7.78;;;3.28;;
50789;SDS011;37287;47.554;7.844;2023-10-09T06:16:52;5.50;;;2.78;;
50789;SDS011;37287;47.554;7.844;2023-10-09T06:19:37;6.07;;;3.22;;
50789;SDS011;37287;47.554;7.844;2023-10-09T06:22:10;6.93;;;3.25;;
50789;SDS011;37287;47.554;7.844;2023-10-09T06:24:46;6.28;;;3.13;;
50789;SDS011;37287;47.554;7.844;2023-10-09T06:27:21;9.25;;;4.10;;
50789;SDS011;37287;47.554;7.844;2023-10-09T06:30:11;8.60;;;3.35;;
50789;SDS011;37287;47.554;7.844;2023-10-09T06:32:50;9.77;;;3.63;;
50789;SDS011;37287;47.554;7.844;2023-10-09T06:35:17;10.13;;;3.00;;
50789;SDS011;37287;47.554;7.844;2023-10-09T06:37:58;6.05;;;3.05;;
50789;SDS011;37287;47.554;7.844;2023-10-09T06:43:17;7.65;;;3.22;;
50789;SDS011;37287;47.554;7.844;2023-10-09T06:45:53;10.38;;;3.28;;
50789;SDS011;37287;47.554;7.844;2023-10-09T06:48:21;7.57;;;3.35;;
50789;SDS011;37287;47.554;7.844;2023-10-09T06:51:04;8.23;;;3.75;;
50789;SDS011;37287;47.554;7.844;2023-10-09T06:53:49;5.20;;;3.22;;
50789;SDS011;37287;47.554;7.844;2023-10-09T06:56:27;6.70;;;3.17;;
50789;SDS011;37287;47.554;7.844;2023-10-09T07:01:40;9.95;;;3.83;;
50789;SDS011;37287;47.554;7.844;2023-10-09T07:04:12;14.65;;;3.63;;
50789;SDS011;37287;47.554;7.844;2023-10-09T07:06:49;9.40;;;3.30;;
50789;SDS011;37287;47.554;7.844;2023-10-09T07:09:23;10.27;;;3.60;;
50789;SDS011;37287;47.554;7.844;2023-10-09T07:12:08;12.75;;;3.47;;
50789;SDS011;37287;47.554;7.844;2023-10-09T07:14:41;6.38;;;2.95;;
50789;SDS011;37287;47.554;7.844;2023-10-09T07:17:27;13.68;;;3.15;;
50789;SDS011;37287;47.554;7.844;2023-10-09T07:20:23;5.68;;;3.13;;
50789;SDS011;37287;47.554;7.844;2023-10-09T07:23:07;4.95;;;3.00;;
50789;SDS011;37287;47.554;7.844;2023-10-09T07:25:44;7.07;;;3.10;;
50789;SDS011;37287;47.554;7.844;2023-10-09T07:28:26;10.88;;;3.38;;
50789;SDS011;37287;47.554;7.844;2023-10-09T07:31:03;8.15;;;3.15;;
50789;SDS011;37287;47.554;7.844;2023-10-09T07:33:37;6.45;;;3.35;;
50789;SDS011;37287;47.554;7.844;2023-10-09T07:36:23;8.63;;;3.08;;
50789;SDS011;37287;47.554;7.844;2023-10-09T07:39:02;7.03;;;3.15;;
50789;SDS011;37287;47.554;7.844;2023-10-09T07:41:40;9.30;;;3.92;;
50789;SDS011;37287;47.554;7.844;2023-10-09T07:44:22;8.82;;;3.13;;
50789;SDS011;37287;47.554;7.844;2023-10-09T07:47:04;6.80;;;3.40;;
50789;SDS011;37287;47.554;7.844;2023-10-09T07:49:46;6.05;;;3.13;;
50789;SDS011;37287;47.554;7.844;2023-10-09T07:52:20;6.57;;;3.35;;
50789;SDS011;37287;47.554;7.844;2023-10-09T07:54:58;9.40;;;4.25;;
50789;SDS011;37287;47.554;7.844;2023-10-09T07:57:29;7.07;;;4.00;;
50789;SDS011;37287;47.554;7.844;2023-10-09T08:00:05;7.65;;;4.13;;
50789;SDS011;37287;47.554;7.844;2023-10-09T08:02:59;9.98;;;3.55;;
50789;SDS011;37287;47.554;7.844;2023-10-09T08:05:35;10.30;;;3.58;;
50789;SDS011;37287;47.554;7.844;2023-10-09T08:11:02;6.18;;;3.58;;
50789;SDS011;37287;47.554;7.844;2023-10-09T08:13:49;6.32;;;3.50;;
50789;SDS011;37287;47.554;7.844;2023-10-09T08:16:16;7.43;;;3.33;;
50789;SDS011;37287;47.554;7.844;2023-10-09T08:18:53;6.05;;;3.10;;
50789;SDS011;37287;47.554;7.844;2023-10-09T08:21:23;5.90;;;3.20;;
50789;SDS011;37287;47.554;7.844;2023-10-09T08:24:08;6.30;;;3.33;;
50789;SDS011;37287;47.554;7.844;2023-10-09T08:26:55;9.70;;;3.50;;
50789;SDS011;37287;47.554;7.844;2023-10-09T08:29:42;14.43;;;3.55;;
50789;SDS011;37287;47.554;7.844;2023-10-09T08:32:13;10.15;;;3.75;;
50789;SDS011;37287;47.554;7.844;2023-10-09T08:35:09;8.93;;;3.50;;
50789;SDS011;37287;47.554;7.844;2023-10-09T08:37:58;12.32;;;3.90;;
50789;SDS011;37287;47.554;7.844;2023-10-09T08:40:35;14.10;;;3.28;;
50789;SDS011;37287;47.554;7.844;2023-10-09T08:43:09;9.55;;;3.28;;
50789;SDS011;37287;47.554;7.844;2023-10-09T08:45:49;7.35;;;3.42;;
50789;SDS011;37287;47.554;7.844;2023-10-09T08:48:19;6.97;;;3.10;;
50789;SDS011;37287;47.554;7.844;2023-10-09T08:50:51;6.82;;;3.58;;
50789;SDS011;37287;47.554;7.844;2023-10-09T08:53:22;4.43;;;2.85;;
50789;SDS011;37287;47.554;7.844;2023-10-09T08:55:58;7.45;;;3.42;;
50789;SDS011;37287;47.554;7.844;2023-10-09T08:58:28;6.40;;;3.33;;
50789;SDS011;37287;47.554;7.844;2023-10-09T09:01:07;9.77;;;3.20;;
50789;SDS011;37287;47.554;7.844;2023-10-09T09:03:44;9.02;;;3.00;;
50789;SDS011;37287;47.554;7.844;2023-10-09T09:06:12;7.22;;;3.20;;
50789;SDS011;37287;47.554;7.844;2023-10-09T09:08:42;13.05;;;3.40;;
50789;SDS011;37287;47.554;7.844;2023-10-09T09:11:12;7.53;;;3.30;;
50789;SDS011;37287;47.554;7.844;2023-10-09T09:14:04;7.65;;;3.05;;
50789;SDS011;37287;47.554;7.844;2023-10-09T09:16:33;7.93;;;3.13;;
50789;SDS011;37287;47.554;7.844;2023-10-09T09:19:08;10.70;;;3.00;;
50789;SDS011;37287;47.554;7.844;2023-10-09T09:21:39;9.05;;;2.70;;
50789;SDS011;37287;47.554;7.844;2023-10-09T09:24:09;8.40;;;3.10;;
50789;SDS011;37287;47.554;7.844;2023-10-09T09:26:50;9.02;;;3.50;;
50789;SDS011;37287;47.554;7.844;2023-10-09T09:32:09;7.35;;;2.58;;
50789;SDS011;37287;47.554;7.844;2023-10-09T09:34:47;9.93;;;2.88;;
50789;SDS011;37287;47.554;7.844;2023-10-09T09:37:19;9.77;;;2.92;;
50789;SDS011;37287;47.554;7.844;2023-10-09T09:39:50;7.07;;;2.60;;
50789;SDS011;37287;47.554;7.844;2023-10-09T09:42:21;6.82;;;2.40;;
50789;SDS011;37287;47.554;7.844;2023-10-09T09:44:55;6.35;;;2.78;;
50789;SDS011;37287;47.554;7.844;2023-10-09T09:47:22;6.88;;;2.35;;
50789;SDS011;37287;47.554;7.844;2023-10-09T09:49:54;5.97;;;2.53;;
50789;SDS011;37287;47.554;7.844;2023-10-09T09:52:33;7.85;;;2.38;;
50789;SDS011;37287;47.554;7.844;2023-10-09T09:55:09;4.30;;;2.25;;
50789;SDS011;37287;47.554;7.844;2023-10-09T09:57:50;7.00;;;2.20;;
50789;SDS011;37287;47.554;7.844;2023-10-09T10:00:21;6.80;;;2.47;;
50789;SDS011;37287;47.554;7.844;2023-10-09T10:03:13;5.60;;;2.20;;
50789;SDS011;37287;47.554;7.844;2023-10-09T10:05:45;4.75;;;2.10;;
50789;SDS011;37287;47.554;7.844;2023-10-09T10:08:19;6.13;;;2.15;;
50789;SDS011;37287;47.554;7.844;2023-10-09T10:10:47;8.07;;;2.50;;
50789;SDS011;37287;47.554;7.844;2023-10-09T10:16:10;3.17;;;1.85;;
50789;SDS011;37287;47.554;7.844;2023-10-09T10:18:54;5.90;;;2.65;;
50789;SDS011;37287;47.554;7.844;2023-10-09T10:21:27;6.18;;;2.35;;
50789;SDS011;37287;47.554;7.844;2023-10-09T10:24:00;12.02;;;2.28;;
50789;SDS011;37287;47.554;7.844;2023-10-09T10:26:32;6.43;;;2.35;;
50789;SDS011;37287;47.554;7.844;2023-10-09T10:29:20;6.93;;;2.10;;
50789;SDS011;37287;47.554;7.844;2023-10-09T10:34:52;6.57;;;2.35;;
50789;SDS011;37287;47.554;7.844;2023-10-09T10:40:27;8.52;;;2.00;;
50789;SDS011;37287;47.554;7.844;2023-10-09T10:43:20;9.27;;;2.35;;
50789;SDS011;37287;47.554;7.844;2023-10-09T10:46:03;7.57;;;2.08;;
50789;SDS011;37287;47.554;7.844;2023-10-09T10:48:37;7.28;;;2.00;;
50789;SDS011;37287;47.554;7.844;2023-10-09T10:51:13;5.30;;;2.35;;
50789;SDS011;37287;47.554;7.844;2023-10-09T10:53:51;7.28;;;2.10;;
50789;SDS011;37287;47.554;7.844;2023-10-09T10:56:24;6.57;;;1.85;;
50789;SDS011;37287;47.554;7.844;2023-10-09T10:59:01;5.63;;;2.05;;
50789;SDS011;37287;47.554;7.844;2023-10-09T11:01:31;5.93;;;2.20;;
50789;SDS011;37287;47.554;7.844;2023-10-09T11:04:26;6.22;;;2.00;;
50789;SDS011;37287;47.554;7.844;2023-10-09T11:07:01;9.10;;;2.40;;
50789;SDS011;37287;47.554;7.844;2023-10-09T11:09:52;11.27;;;2.65;;
50789;SDS011;37287;47.554;7.844;2023-10-09T11:15:11;5.47;;;2.10;;
50789;SDS011;37287;47.554;7.844;2023-10-09T11:18:01;5.57;;;2.08;;
50789;SDS011;37287;47.554;7.844;2023-10-09T11:20:53;3.63;;;1.70;;
50789;SDS011;37287;47.554;7.844;2023-10-09T11:23:30;4.03;;;1.67;;
50789;SDS011;37287;47.554;7.844;2023-10-09T11:26:04;6.88;;;2.10;;
50789;SDS011;37287;47.554;7.844;2023-10-09T11:29:08;9.02;;;2.40;;
50789;SDS011;37287;47.554;7.844;2023-10-09T11:32:00;11.32;;;2.83;;
50789;SDS011;37287;47.554;7.844;2023-10-09T11:34:36;8.38;;;2.13;;
50789;SDS011;37287;47.554;7.844;2023-10-09T11:37:14;8.10;;;2.28;;
50789;SDS011;37287;47.554;7.844;2023-10-09T11:39:59;4.10;;;1.83;;
50789;SDS011;37287;47.554;7.844;2023-10-09T11:42:27;8.10;;;2.10;;
50789;SDS011;37287;47.554;7.844;2023-10-09T11:45:07;8.88;;;1.83;;
50789;SDS011;37287;47.554;7.844;2023-10-09T11:47:47;8.50;;;2.20;;
50789;SDS011;37287;47.554;7.844;2023-10-09T11:50:45;7.55;;;2.17;;
50789;SDS011;37287;47.554;7.844;2023-10-09T11:53:43;14.43;;;2.75;;
50789;SDS011;37287;47.554;7.844;2023-10-09T11:56:12;7.53;;;2.22;;
50789;SDS011;37287;47.554;7.844;2023-10-09T11:58:47;7.40;;;2.63;;
50789;SDS011;37287;47.554;7.844;2023-10-09T12:01:18;8.52;;;2.00;;
50789;SDS011;37287;47.554;7.844;2023-10-09T12:03:49;7.60;;;2.50;;
50789;SDS011;37287;47.554;7.844;2023-10-09T12:06:17;6.82;;;2.38;;
50789;SDS011;37287;47.554;7.844;2023-10-09T12:08:50;6.75;;;2.03;;
50789;SDS011;37287;47.554;7.844;2023-10-09T12:11:17;6.80;;;2.05;;
50789;SDS011;37287;47.554;7.844;2023-10-09T12:13:56;6.22;;;1.90;;
50789;SDS011;37287;47.554;7.844;2023-10-09T12:16:23;6.07;;;2.17;;
50789;SDS011;37287;47.554;7.844;2023-10-09T12:18:55;4.18;;;1.80;;
50789;SDS011;37287;47.554;7.844;2023-10-09T12:21:23;6.78;;;2.13;;
50789;SDS011;37287;47.554;7.844;2023-10-09T12:23:50;7.00;;;1.80;;
50789;SDS011;37287;47.554;7.844;2023-10-09T12:26:17;6.13;;;2.30;;
50789;SDS011;37287;47.554;7.844;2023-10-09T12:28:44;5.78;;;1.70;;
50789;SDS011;37287;47.554;7.844;2023-10-09T12:31:13;8.55;;;1.92;;
50789;SDS011;37287;47.554;7.844;2023-10-09T12:33:51;7.38;;;2.00;;
50789;SDS011;37287;47.554;7.844;2023-10-09T12:36:18;5.45;;;1.98;;
50789;SDS011;37287;47.554;7.844;2023-10-09T12:38:47;8.25;;;2.35;;
50789;SDS011;37287;47.554;7.844;2023-10-09T12:41:22;6.82;;;2.00;;
50789;SDS011;37287;47.554;7.844;2023-10-09T12:43:54;13.02;;;2.47;;
50789;SDS011;37287;47.554;7.844;2023-10-09T12:46:21;8.38;;;2.53;;
50789;SDS011;37287;47.554;7.844;2023-10-09T12:48:52;10.05;;;2.20;;
50789;SDS011;37287;47.554;7.844;2023-10-09T12:51:21;6.47;;;2.10;;
50789;SDS011;37287;47.554;7.844;2023-10-09T12:53:51;7.43;;;2.15;;
50789;SDS011;37287;47.554;7.844;2023-10-09T12:56:24;5.65;;;2.00;;
50789;SDS011;37287;47.554;7.844;2023-10-09T12:58:59;7.78;;;2.53;;
50789;SDS011;37287;47.554;7.844;2023-10-09T13:01:28;9.95;;;2.10;;
50789;SDS011;37287;47.554;7.844;2023-10-09T13:03:58;7.88;;;2.25;;
50789;SDS011;37287;47.554;7.844;2023-10-09T13:06:38;4.80;;;2.03;;
50789;SDS011;37287;47.554;7.844;2023-10-09T13:09:17;7.75;;;2.22;;
50789;SDS011;37287;47.554;7.844;2023-10-09T13:12:02;8.95;;;2.20;;
50789;SDS011;37287;47.554;7.844;2023-10-09T13:14:31;7.32;;;2.17;;
50789;SDS011;37287;47.554;7.844;2023-10-09T13:17:00;11.13;;;2.33;;
50789;SDS011;37287;47.554;7.844;2023-10-09T13:19:37;5.13;;;1.75;;
50789;SDS011;37287;47.554;7.844;2023-10-09T13:22:03;10.18;;;2.60;;
50789;SDS011;37287;47.554;7.844;2023-10-09T13:24:39;8.45;;;2.20;;
50789;SDS011;37287;47.554;7.844;2023-10-09T13:27:09;8.90;;;2.10;;
50789;SDS011;37287;47.554;7.844;2023-10-09T13:29:38;7.05;;;1.80;;
50789;SDS011;37287;47.554;7.844;2023-10-09T13:32:10;5.80;;;2.00;;
50789;SDS011;37287;47.554;7.844;2023-10-09T13:34:42;10.45;;;2.25;;
50789;SDS011;37287;47.554;7.844;2023-10-09T13:37:11;7.18;;;2.03;;
50789;SDS011;37287;47.554;7.844;2023-10-09T13:39:40;7.93;;;2.13;;
50789;SDS011;37287;47.554;7.844;2023-10-09T13:42:19;5.95;;;2.00;;
50789;SDS011;37287;47.554;7.844;2023-10-09T13:44:52;5.75;;;1.75;;
50789;SDS011;37287;47.554;7.844;2023-10-09T13:47:22;6.57;;;1.83;;
50789;SDS011;37287;47.554;7.844;2023-10-09T13:50:07;7.45;;;1.95;;
50789;SDS011;37287;47.554;7.844;2023-10-09T13:52:36;8.95;;;2.28;;
50789;SDS011;37287;47.554;7.844;2023-10-09T13:55:06;4.43;;;1.77;;
50789;SDS011;37287;47.554;7.844;2023-10-09T13:57:43;6.28;;;2.08;;
50789;SDS011;37287;47.554;7.844;2023-10-09T14:00:15;6.78;;;1.70;;
50789;SDS011;37287;47.554;7.844;2023-10-09T14:03:09;8.88;;;1.60;;
50789;SDS011;37287;47.554;7.844;2023-10-09T14:05:39;4.45;;;1.65;;
50789;SDS011;37287;47.554;7.844;2023-10-09T14:08:22;8.45;;;2.00;;
50789;SDS011;37287;47.554;7.844;2023-10-09T14:10:49;6.25;;;1.85;;
50789;SDS011;37287;47.554;7.844;2023-10-09T14:13:16;5.05;;;1.85;;
50789;SDS011;37287;47.554;7.844;2023-10-09T14:15:53;4.07;;;1.40;;
50789;SDS011;37287;47.554;7.844;2023-10-09T14:18:21;6.15;;;2.28;;
50789;SDS011;37287;47.554;7.844;2023-10-09T14:20:48;6.50;;;2.25;;
50789;SDS011;37287;47.554;7.844;2023-10-09T14:23:30;5.72;;;2.13;;
50789;SDS011;37287;47.554;7.844;2023-10-09T14:26:01;8.38;;;2.33;;
50789;SDS011;37287;47.554;7.844;2023-10-09T14:28:28;8.70;;;1.88;;
50789;SDS011;37287;47.554;7.844;2023-10-09T14:30:55;5.82;;;1.92;;
50789;SDS011;37287;47.554;7.844;2023-10-09T14:33:27;7.72;;;2.05;;
50789;SDS011;37287;47.554;7.844;2023-10-09T14:36:01;9.07;;;2.05;;
50789;SDS011;37287;47.554;7.844;2023-10-09T14:38:28;5.93;;;2.10;;
50789;SDS011;37287;47.554;7.844;2023-10-09T14:40:59;4.82;;;1.92;;
50789;SDS011;37287;47.554;7.844;2023-10-09T14:43:32;4.07;;;1.75;;
50789;SDS011;37287;47.554;7.844;2023-10-09T14:46:00;6.70;;;1.80;;
50789;SDS011;37287;47.554;7.844;2023-10-09T14:48:27;10.40;;;2.20;;
50789;SDS011;37287;47.554;7.844;2023-10-09T14:50:56;8.02;;;1.85;;
50789;SDS011;37287;47.554;7.844;2023-10-09T14:53:31;6.90;;;1.98;;
50789;SDS011;37287;47.554;7.844;2023-10-09T14:56:06;7.63;;;2.00;;
50789;SDS011;37287;47.554;7.844;2023-10-09T14:58:36;5.45;;;1.67;;
50789;SDS011;37287;47.554;7.844;2023-10-09T15:01:09;6.03;;;1.70;;
50789;SDS011;37287;47.554;7.844;2023-10-09T15:04:00;7.10;;;1.92;;
50789;SDS011;37287;47.554;7.844;2023-10-09T15:06:27;6.68;;;2.17;;
50789;SDS011;37287;47.554;7.844;2023-10-09T15:08:57;3.25;;;1.48;;
50789;SDS011;37287;47.554;7.844;2023-10-09T15:11:25;5.43;;;1.80;;
50789;SDS011;37287;47.554;7.844;2023-10-09T15:13:56;7.72;;;1.70;;
50789;SDS011;37287;47.554;7.844;2023-10-09T15:16:24;5.38;;;1.70;;
50789;SDS011;37287;47.554;7.844;2023-10-09T15:18:57;4.93;;;1.83;;
50789;SDS011;37287;47.554;7.844;2023-10-09T15:21:29;5.70;;;2.08;;
50789;SDS011;37287;47.554;7.844;2023-10-09T15:23:58;4.80;;;1.63;;
50789;SDS011;37287;47.554;7.844;2023-10-09T15:26:42;7.35;;;1.80;;
50789;SDS011;37287;47.554;7.844;2023-10-09T15:29:10;9.25;;;1.85;;
50789;SDS011;37287;47.554;7.844;2023-10-09T15:31:36;3.70;;;1.90;;
50789;SDS011;37287;47.554;7.844;2023-10-09T15:34:12;9.60;;;2.33;;
50789;SDS011;37287;47.554;7.844;2023-10-09T15:36:39;10.48;;;2.40;;
50789;SDS011;37287;47.554;7.844;2023-10-09T15:39:06;12.85;;;2.45;;
50789;SDS011;37287;47.554;7.844;2023-10-09T15:41:37;9.82;;;2.00;;
50789;SDS011;37287;47.554;7.844;2023-10-09T15:44:06;5.45;;;1.80;;
50789;SDS011;37287;47.554;7.844;2023-10-09T15:46:32;5.55;;;1.98;;
50789;SDS011;37287;47.554;7.844;2023-10-09T15:49:02;6.35;;;1.98;;
50789;SDS011;37287;47.554;7.844;2023-10-09T15:51:29;4.53;;;1.80;;
50789;SDS011;37287;47.554;7.844;2023-10-09T15:53:56;5.97;;;1.95;;
50789;SDS011;37287;47.554;7.844;2023-10-09T15:56:24;6.95;;;1.65;;
50789;SDS011;37287;47.554;7.844;2023-10-09T15:58:53;9.98;;;2.10;;
50789;SDS011;37287;47.554;7.844;2023-10-09T16:01:20;5.85;;;1.90;;